createdAt,value
2018-03-20T00:02:16.212Z,0.53
2018-03-20T00:04:42.895Z,0.40
2018-03-20T00:07:09.587Z,0.70
2018-03-20T00:09:36.307Z,0.60
2018-03-20T00:12:02.992Z,0.90
2018-03-20T00:14:29.675Z,0.70
2018-03-20T00:16:56.404Z,0.50
2018-03-20T00:19:23.092Z,0.37
2018-03-20T00:21:49.790Z,0.80
2018-03-20T00:24:16.521Z,0.30
2018-03-20T00:26:43.220Z,0.70
2018-03-20T00:29:09.918Z,0.40
2018-03-20T00:31:36.628Z,0.40
2018-03-20T00:34:03.323Z,0.30
2018-03-20T00:36:31.552Z,0.63
2018-03-20T00:38:58.275Z,0.43
2018-03-20T00:41:24.968Z,0.90
2018-03-20T00:43:51.667Z,0.60
2018-03-20T00:46:18.415Z,0.80
2018-03-20T00:48:45.106Z,1.23
2018-03-20T00:51:11.824Z,1.67
2018-03-20T00:53:38.545Z,2.33
2018-03-20T00:56:05.228Z,0.90
2018-03-20T00:58:31.931Z,0.47
2018-03-20T01:00:58.647Z,0.77
2018-03-20T01:03:25.336Z,0.70
2018-03-20T01:05:52.056Z,0.90
2018-03-20T01:08:18.767Z,0.87
2018-03-20T01:10:45.457Z,0.83
2018-03-20T01:13:12.144Z,0.90
2018-03-20T01:15:38.863Z,0.67
2018-03-20T01:18:05.551Z,0.70
2018-03-20T01:20:32.233Z,0.63
2018-03-20T01:22:58.948Z,0.50
2018-03-20T01:25:25.631Z,0.60
2018-03-20T01:27:52.331Z,0.70
2018-03-20T01:30:19.039Z,0.60
2018-03-20T01:32:45.724Z,0.63
2018-03-20T01:35:12.415Z,0.40
2018-03-20T01:37:39.130Z,0.50
2018-03-20T01:40:05.824Z,0.70
2018-03-20T01:42:32.520Z,0.60
2018-03-20T01:44:59.511Z,0.80
2018-03-20T01:47:26.202Z,0.53
2018-03-20T01:49:52.887Z,0.80
2018-03-20T01:52:25.577Z,0.80
2018-03-20T01:54:52.276Z,0.70
2018-03-20T01:57:18.971Z,0.50
2018-03-20T01:59:45.723Z,0.80
2018-03-20T02:02:12.422Z,0.63
2018-03-20T02:04:39.114Z,0.70
2018-03-20T02:07:05.876Z,0.80
2018-03-20T02:09:32.556Z,0.70
2018-03-20T02:11:59.251Z,0.60
2018-03-20T02:14:25.971Z,0.70
2018-03-20T02:16:52.659Z,0.70
2018-03-20T02:19:19.364Z,0.63
2018-03-20T02:21:46.083Z,0.50
2018-03-20T02:24:12.787Z,0.67
2018-03-20T02:26:39.472Z,0.70
2018-03-20T02:29:06.188Z,0.70
2018-03-20T02:31:32.905Z,0.63
2018-03-20T02:33:59.598Z,0.60
2018-03-20T02:36:26.328Z,0.60
2018-03-20T02:38:53.097Z,0.63
2018-03-20T02:41:19.779Z,0.60
2018-03-20T02:43:46.466Z,0.63
2018-03-20T02:46:13.952Z,0.63
2018-03-20T02:48:40.644Z,0.60
2018-03-20T02:51:07.429Z,0.70
2018-03-20T02:53:34.078Z,0.80
2018-03-20T02:56:00.780Z,0.60
2018-03-20T02:58:27.488Z,0.80
2018-03-20T03:00:54.200Z,0.60
2018-03-20T03:03:20.903Z,0.60
2018-03-20T03:05:47.600Z,0.60
2018-03-20T03:08:14.323Z,0.50
2018-03-20T03:10:41.019Z,0.60
2018-03-20T03:13:07.706Z,0.60
2018-03-20T03:15:34.422Z,0.67
2018-03-20T03:18:01.116Z,0.77
2018-03-20T03:20:27.822Z,0.53
2018-03-20T03:22:54.571Z,0.40
2018-03-20T03:25:21.272Z,0.40
2018-03-20T03:27:47.967Z,0.90
2018-03-20T03:30:14.683Z,0.67
2018-03-20T03:32:41.380Z,0.40
2018-03-20T03:35:08.067Z,0.60
2018-03-20T03:37:34.795Z,0.57
2018-03-20T03:40:01.479Z,0.47
2018-03-20T03:42:28.189Z,0.60
2018-03-20T03:44:55.194Z,0.63
2018-03-20T03:47:21.894Z,0.77
2018-03-20T03:49:48.877Z,0.83
2018-03-20T03:52:15.588Z,0.50
2018-03-20T03:54:42.291Z,0.80
2018-03-20T03:57:08.984Z,0.90
2018-03-20T03:59:35.700Z,0.50
2018-03-20T04:02:02.392Z,0.50
2018-03-20T04:04:29.087Z,0.60
2018-03-20T04:06:55.840Z,0.50
2018-03-20T04:09:22.540Z,0.50
2018-03-20T04:11:49.242Z,0.70
2018-03-20T04:14:15.959Z,0.53
2018-03-20T04:16:42.699Z,0.57
2018-03-20T04:19:09.390Z,0.57
2018-03-20T04:21:36.107Z,0.70
2018-03-20T04:24:02.806Z,0.60
2018-03-20T04:26:29.492Z,0.57
2018-03-20T04:28:56.229Z,0.60
2018-03-20T04:31:22.927Z,0.40
2018-03-20T04:33:49.620Z,0.40
2018-03-20T04:36:16.332Z,0.40
2018-03-20T04:38:43.026Z,0.50
2018-03-20T04:41:09.737Z,0.57
2018-03-20T04:43:36.465Z,0.60
2018-03-20T04:46:03.169Z,0.63
2018-03-20T04:48:29.862Z,0.60
2018-03-20T04:50:56.589Z,0.63
2018-03-20T04:53:23.284Z,0.37
2018-03-20T04:55:49.980Z,0.50
2018-03-20T04:58:16.696Z,0.70
2018-03-20T05:00:43.388Z,0.40
2018-03-20T05:03:10.082Z,0.40
2018-03-20T05:05:36.812Z,0.40
2018-03-20T05:08:03.512Z,0.30
2018-03-20T05:10:30.211Z,0.47
2018-03-20T05:12:56.943Z,0.20
2018-03-20T05:15:23.652Z,0.50
2018-03-20T05:17:50.971Z,0.40
2018-03-20T05:20:23.408Z,0.60
2018-03-20T05:22:52.782Z,0.50
2018-03-20T05:25:19.473Z,0.60
2018-03-20T05:27:46.192Z,0.40
2018-03-20T05:30:12.890Z,0.40
2018-03-20T05:32:39.601Z,0.40
2018-03-20T05:35:06.334Z,0.60
2018-03-20T05:37:33.028Z,0.40
2018-03-20T05:39:59.727Z,0.60
2018-03-20T05:42:26.467Z,0.60
2018-03-20T05:44:53.160Z,0.60
2018-03-20T05:47:25.543Z,0.57
2018-03-20T05:49:58.127Z,0.60
2018-03-20T05:52:24.822Z,0.63
2018-03-20T05:54:51.586Z,0.67
2018-03-20T05:57:18.297Z,0.50
2018-03-20T05:59:45.005Z,0.63
2018-03-20T06:02:11.703Z,0.50
2018-03-20T06:04:38.424Z,0.60
2018-03-20T06:07:05.115Z,0.67
2018-03-20T06:09:31.809Z,0.50
2018-03-20T06:11:58.551Z,0.47
2018-03-20T06:14:25.240Z,0.47
2018-03-20T06:16:51.935Z,0.70
2018-03-20T06:19:18.661Z,0.63
2018-03-20T06:21:45.353Z,0.60
2018-03-20T06:24:12.032Z,0.60
2018-03-20T06:26:38.760Z,0.70
2018-03-20T06:29:05.714Z,0.73
2018-03-20T06:31:32.400Z,0.70
2018-03-20T06:33:59.131Z,0.70
2018-03-20T06:36:25.829Z,1.33
2018-03-20T06:38:52.509Z,0.60
2018-03-20T06:41:19.267Z,0.40
2018-03-20T06:43:46.154Z,0.90
2018-03-20T06:46:12.868Z,0.80
2018-03-20T06:48:39.591Z,0.90
2018-03-20T06:51:06.279Z,0.50
2018-03-20T06:53:32.975Z,0.90
2018-03-20T06:55:59.679Z,1.07
2018-03-20T06:58:26.371Z,0.83
2018-03-20T07:00:53.061Z,0.80
2018-03-20T07:03:19.797Z,1.00
2018-03-20T07:05:46.504Z,0.80
2018-03-20T07:08:13.190Z,0.97
2018-03-20T07:10:39.916Z,0.90
2018-03-20T07:13:06.603Z,0.83
2018-03-20T07:15:33.289Z,1.23
2018-03-20T07:18:00.010Z,0.80
2018-03-20T07:20:26.712Z,1.00
2018-03-20T07:22:53.424Z,1.13
2018-03-20T07:25:20.172Z,1.20
2018-03-20T07:27:46.868Z,0.90
2018-03-20T07:30:13.568Z,1.00
2018-03-20T07:32:40.286Z,1.00
2018-03-20T07:35:06.971Z,1.00
2018-03-20T07:37:33.662Z,0.90
2018-03-20T07:40:00.384Z,0.93
2018-03-20T07:42:27.067Z,1.17
2018-03-20T07:44:53.806Z,0.90
2018-03-20T07:47:20.523Z,1.30
2018-03-20T07:49:47.231Z,1.10
2018-03-20T07:52:13.919Z,1.10
2018-03-20T07:54:40.633Z,1.40
2018-03-20T07:57:07.326Z,1.20
2018-03-20T07:59:34.014Z,1.33
2018-03-20T08:02:00.735Z,1.20
2018-03-20T08:04:27.450Z,1.40
2018-03-20T08:06:54.143Z,1.20
2018-03-20T08:09:21.765Z,1.17
2018-03-20T08:11:48.789Z,1.23
2018-03-20T08:14:15.472Z,1.00
2018-03-20T08:16:42.162Z,1.30
2018-03-20T08:19:08.881Z,1.00
2018-03-20T08:21:35.590Z,1.17
2018-03-20T08:24:02.281Z,1.40
2018-03-20T08:26:28.991Z,1.30
2018-03-20T08:28:55.675Z,1.20
2018-03-20T08:31:22.367Z,1.17
2018-03-20T08:33:49.172Z,1.20
2018-03-20T08:36:15.855Z,1.30
2018-03-20T08:38:42.553Z,1.00
2018-03-20T08:41:09.267Z,1.23
2018-03-20T08:43:35.963Z,1.07
2018-03-20T08:46:02.738Z,1.73
2018-03-20T08:48:29.460Z,1.20
2018-03-20T08:50:56.152Z,1.30
2018-03-20T08:53:22.839Z,1.10
2018-03-20T08:55:49.551Z,1.40
2018-03-20T08:58:16.244Z,1.27
2018-03-20T09:00:42.935Z,1.37
2018-03-20T09:03:09.661Z,1.27
2018-03-20T09:05:36.370Z,1.30
2018-03-20T09:08:03.230Z,1.27
2018-03-20T09:10:30.038Z,1.30
2018-03-20T09:12:56.741Z,1.20
2018-03-20T09:15:23.441Z,1.30
2018-03-20T09:17:50.184Z,1.23
2018-03-20T09:20:16.886Z,1.27
2018-03-20T09:22:43.597Z,1.13
2018-03-20T09:25:10.325Z,1.20
2018-03-20T09:27:37.054Z,1.30
2018-03-20T09:30:03.753Z,1.30
2018-03-20T09:32:30.497Z,1.27
2018-03-20T09:34:57.213Z,1.30
2018-03-20T09:37:23.922Z,1.50
2018-03-20T09:39:50.664Z,1.40
2018-03-20T09:42:17.381Z,1.23
2018-03-20T09:44:44.086Z,1.30
2018-03-20T09:47:10.826Z,1.20
2018-03-20T09:49:37.529Z,1.60
2018-03-20T09:52:04.221Z,1.37
2018-03-20T09:54:30.945Z,1.50
2018-03-20T09:56:57.661Z,1.40
2018-03-20T09:59:24.367Z,1.10
2018-03-20T10:01:51.124Z,1.47
2018-03-20T10:04:17.826Z,1.20
2018-03-20T10:06:44.521Z,1.40
2018-03-20T10:09:11.297Z,1.10
2018-03-20T10:11:38.007Z,1.13
2018-03-20T10:14:04.701Z,1.43
2018-03-20T10:16:31.445Z,1.50
2018-03-20T10:18:58.185Z,1.20
2018-03-20T10:21:24.885Z,1.40
2018-03-20T10:23:51.625Z,1.40
2018-03-20T10:26:18.343Z,1.40
2018-03-20T10:28:45.046Z,1.20
2018-03-20T10:31:11.782Z,1.20
2018-03-20T10:33:38.485Z,1.17
2018-03-20T10:36:05.188Z,1.30
2018-03-20T10:38:31.925Z,1.30
2018-03-20T10:40:58.630Z,1.40
2018-03-20T10:43:25.333Z,1.30
2018-03-20T10:45:52.111Z,1.47
2018-03-20T10:48:18.817Z,1.30
2018-03-20T10:50:45.526Z,1.20
2018-03-20T10:53:12.266Z,1.40
2018-03-20T10:55:38.971Z,1.40
2018-03-20T10:58:05.670Z,1.50
2018-03-20T11:00:38.303Z,1.53
2018-03-20T11:03:07.948Z,1.27
2018-03-20T11:05:34.653Z,1.40
2018-03-20T11:08:01.387Z,1.40
2018-03-20T11:10:28.131Z,1.40
2018-03-20T11:12:55.122Z,1.33
2018-03-20T11:15:21.860Z,1.50
2018-03-20T11:17:48.576Z,1.40
2018-03-20T11:20:15.342Z,1.67
2018-03-20T11:22:42.075Z,1.30
2018-03-20T11:25:08.781Z,1.70
2018-03-20T11:27:35.482Z,1.43
2018-03-20T11:30:02.243Z,1.30
2018-03-20T11:32:28.941Z,1.50
2018-03-20T11:34:55.653Z,1.43
2018-03-20T11:37:22.386Z,1.50
2018-03-20T11:39:49.079Z,1.60
2018-03-20T11:42:15.789Z,1.50
2018-03-20T11:44:42.512Z,1.80
2018-03-20T11:47:09.218Z,1.53
2018-03-20T11:49:35.948Z,1.40
2018-03-20T11:52:02.710Z,1.27
2018-03-20T11:54:29.423Z,1.20
2018-03-20T11:56:56.121Z,1.40
2018-03-20T11:59:22.851Z,1.47
2018-03-20T12:01:49.549Z,1.53
2018-03-20T12:04:16.250Z,1.53
2018-03-20T12:06:43.005Z,1.53
2018-03-20T12:09:09.711Z,1.50
2018-03-20T12:11:36.414Z,1.50
2018-03-20T12:14:03.178Z,1.50
2018-03-20T12:16:29.876Z,1.50
2018-03-20T12:18:56.570Z,1.40
2018-03-20T12:21:23.310Z,1.40
2018-03-20T12:23:50.017Z,1.70
2018-03-20T12:26:16.725Z,1.30
2018-03-20T12:28:43.457Z,1.43
2018-03-20T12:31:10.166Z,1.30
2018-03-20T12:33:36.869Z,1.60
2018-03-20T12:36:03.589Z,1.57
2018-03-20T12:38:30.289Z,1.30
2018-03-20T12:40:56.986Z,1.67
2018-03-20T12:43:23.713Z,1.23
2018-03-20T12:45:50.415Z,1.60
2018-03-20T12:48:17.113Z,1.37
2018-03-20T12:50:44.743Z,1.60
2018-03-20T12:53:11.448Z,1.30
2018-03-20T12:55:38.302Z,1.40
2018-03-20T12:58:05.021Z,1.30
2018-03-20T13:00:31.740Z,1.40
2018-03-20T13:02:58.453Z,1.60
2018-03-20T13:05:25.189Z,1.20
2018-03-20T13:07:51.893Z,1.20
2018-03-20T13:10:18.600Z,1.07
2018-03-20T13:12:45.330Z,1.20
2018-03-20T13:15:12.029Z,1.27
2018-03-20T13:17:38.729Z,1.43
2018-03-20T13:20:05.474Z,1.20
2018-03-20T13:22:32.186Z,1.20
2018-03-20T13:24:58.898Z,1.60
2018-03-20T13:27:25.621Z,1.30
2018-03-20T13:29:52.350Z,1.10
2018-03-20T13:32:19.055Z,1.10
2018-03-20T13:34:45.785Z,1.30
2018-03-20T13:37:12.778Z,1.30
2018-03-20T13:39:39.477Z,1.43
2018-03-20T13:42:06.176Z,1.40
2018-03-20T13:44:32.897Z,1.53
2018-03-20T13:46:59.601Z,1.30
2018-03-20T13:49:26.294Z,1.40
2018-03-20T13:51:53.045Z,1.33
2018-03-20T13:54:19.744Z,1.17
2018-03-20T13:56:46.444Z,1.40
2018-03-20T13:59:13.168Z,1.60
2018-03-20T14:01:39.877Z,1.10
2018-03-20T14:04:06.677Z,1.17
2018-03-20T14:06:33.409Z,1.17
2018-03-20T14:09:00.109Z,1.20
2018-03-20T14:11:26.821Z,1.20
2018-03-20T14:13:53.603Z,1.10
2018-03-20T14:16:20.301Z,1.20
2018-03-20T14:18:47.013Z,1.30
2018-03-20T14:21:13.749Z,1.17
2018-03-20T14:23:40.644Z,1.13
2018-03-20T14:26:07.348Z,1.30
2018-03-20T14:28:34.082Z,1.40
2018-03-20T14:31:00.785Z,1.10
2018-03-20T14:33:27.487Z,1.10
2018-03-20T14:35:54.221Z,1.30
2018-03-20T14:38:20.921Z,1.20
2018-03-20T14:40:47.625Z,1.33
2018-03-20T14:43:14.349Z,1.30
2018-03-20T14:45:41.072Z,1.17
2018-03-20T14:48:07.789Z,0.90
2018-03-20T14:50:34.521Z,1.30
2018-03-20T14:53:01.238Z,1.17
2018-03-20T14:55:27.943Z,1.20
2018-03-20T14:57:54.957Z,1.30
2018-03-20T15:00:21.661Z,1.40
2018-03-20T15:02:48.367Z,1.10
2018-03-20T15:05:15.097Z,1.00
2018-03-20T15:07:41.797Z,1.00
2018-03-20T15:10:08.502Z,0.90
2018-03-20T15:12:35.235Z,1.13
2018-03-20T15:15:01.939Z,1.10
2018-03-20T15:17:28.641Z,1.10
2018-03-20T15:19:55.455Z,1.27
2018-03-20T15:22:22.161Z,1.40
2018-03-20T15:24:48.874Z,1.10
2018-03-20T15:27:15.601Z,0.93
2018-03-20T15:29:42.307Z,1.13
2018-03-20T15:32:09.007Z,1.30
2018-03-20T15:34:35.740Z,1.13
2018-03-20T15:37:02.475Z,1.10
2018-03-20T15:39:29.183Z,1.07
2018-03-20T15:41:55.910Z,1.17
2018-03-20T15:44:22.629Z,1.60
2018-03-20T15:46:49.331Z,1.43
2018-03-20T15:49:16.067Z,1.17
2018-03-20T15:51:42.769Z,1.10
2018-03-20T15:54:09.529Z,1.20
2018-03-20T15:56:36.269Z,1.00
2018-03-20T15:59:03.020Z,1.30
2018-03-20T16:01:29.722Z,1.30
2018-03-20T16:03:56.486Z,1.20
2018-03-20T16:06:23.201Z,1.23
2018-03-20T16:08:49.919Z,1.20
2018-03-20T16:11:16.671Z,1.20
2018-03-20T16:13:43.373Z,1.20
2018-03-20T16:16:10.073Z,1.10
2018-03-20T16:18:36.803Z,1.10
2018-03-20T16:21:03.525Z,1.10
2018-03-20T16:23:30.235Z,1.40
2018-03-20T16:25:56.969Z,1.17
2018-03-20T16:28:23.678Z,1.30
2018-03-20T16:30:50.381Z,1.10
2018-03-20T16:33:17.132Z,1.20
2018-03-20T16:35:43.861Z,1.20
2018-03-20T16:38:10.569Z,1.20
2018-03-20T16:40:37.297Z,1.20
2018-03-20T16:43:03.996Z,1.40
2018-03-20T16:45:30.703Z,1.20
2018-03-20T16:47:57.433Z,1.30
2018-03-20T16:50:24.135Z,1.40
2018-03-20T16:52:50.839Z,1.70
2018-03-20T16:55:17.577Z,1.10
2018-03-20T16:57:44.289Z,1.57
2018-03-20T17:00:10.994Z,1.30
2018-03-20T17:02:37.729Z,1.13
2018-03-20T17:05:04.437Z,1.20
2018-03-20T17:07:31.140Z,1.10
2018-03-20T17:09:57.889Z,1.30
2018-03-20T17:12:24.608Z,1.27
2018-03-20T17:14:51.338Z,1.40
2018-03-20T17:17:18.066Z,1.13
2018-03-20T17:19:44.769Z,1.60
2018-03-20T17:22:11.477Z,1.70
2018-03-20T17:24:38.218Z,1.50
2018-03-20T17:27:04.928Z,1.30
2018-03-20T17:29:31.653Z,1.50
2018-03-20T17:31:58.399Z,2.00
2018-03-20T17:34:25.131Z,1.30
2018-03-20T17:36:51.863Z,1.20
2018-03-20T17:39:18.590Z,1.13
2018-03-20T17:41:45.297Z,1.10
2018-03-20T17:44:12.001Z,1.17
2018-03-20T17:46:38.749Z,1.10
2018-03-20T17:49:05.444Z,1.20
2018-03-20T17:51:32.153Z,1.47
2018-03-20T17:53:58.893Z,1.07
2018-03-20T17:56:25.618Z,1.20
2018-03-20T17:58:52.333Z,1.10
2018-03-20T18:01:19.072Z,1.03
2018-03-20T18:03:45.773Z,1.10
2018-03-20T18:06:12.474Z,1.37
2018-03-20T18:08:39.223Z,1.40
2018-03-20T18:11:05.924Z,1.20
2018-03-20T18:13:32.675Z,1.10
2018-03-20T18:15:59.411Z,1.20
2018-03-20T18:18:26.117Z,1.03
2018-03-20T18:20:52.817Z,1.30
2018-03-20T18:23:19.558Z,1.10
2018-03-20T18:25:46.258Z,1.20
2018-03-20T18:28:12.972Z,1.20
2018-03-20T18:30:39.713Z,1.17
2018-03-20T18:33:06.425Z,1.50
2018-03-20T18:35:33.222Z,1.53
2018-03-20T18:37:59.986Z,1.90
2018-03-20T18:40:26.727Z,1.60
2018-03-20T18:42:54.429Z,1.47
2018-03-20T18:45:21.188Z,1.70
2018-03-20T18:47:47.894Z,1.47
2018-03-20T18:50:14.601Z,1.93
2018-03-20T18:52:41.347Z,2.03
2018-03-20T18:55:08.185Z,2.37
2018-03-20T18:57:34.885Z,3.03
2018-03-20T19:00:01.624Z,3.70
2018-03-20T19:02:28.353Z,2.30
2018-03-20T19:04:55.082Z,3.13
2018-03-20T19:07:21.814Z,2.17
2018-03-20T19:09:48.538Z,2.80
2018-03-20T19:12:15.251Z,2.37
2018-03-20T19:14:42.039Z,2.50
2018-03-20T19:17:08.706Z,2.80
2018-03-20T19:19:35.418Z,2.63
2018-03-20T19:22:02.153Z,2.60
2018-03-20T19:24:28.858Z,3.93
2018-03-20T19:26:55.689Z,7.37
2018-03-20T19:29:22.523Z,5.53
2018-03-20T19:31:49.232Z,4.27
2018-03-20T19:34:15.945Z,3.10
2018-03-20T19:36:43.651Z,3.20
2018-03-20T19:39:10.360Z,2.87
2018-03-20T19:41:37.082Z,3.90
2018-03-20T19:44:03.814Z,4.03
2018-03-20T19:46:30.533Z,4.17
2018-03-20T19:48:57.287Z,4.83
2018-03-20T19:51:24.028Z,3.03
2018-03-20T19:53:50.739Z,5.20
2018-03-20T19:56:17.450Z,6.60
2018-03-20T19:58:44.205Z,4.77
2018-03-20T20:01:10.915Z,4.17
2018-03-20T20:03:37.633Z,4.40
2018-03-20T20:06:04.373Z,4.57
2018-03-20T20:08:31.079Z,5.30
2018-03-20T20:10:57.793Z,6.97
2018-03-20T20:13:24.540Z,6.23
2018-03-20T20:15:51.258Z,6.73
2018-03-20T20:18:17.981Z,5.87
2018-03-20T20:20:44.733Z,5.80
2018-03-20T20:23:11.533Z,4.03
2018-03-20T20:25:38.275Z,4.20
2018-03-20T20:28:05.033Z,4.03
2018-03-20T20:30:31.741Z,4.83
2018-03-20T20:32:58.478Z,4.97
2018-03-20T20:35:25.208Z,5.27
2018-03-20T20:37:51.947Z,5.07
2018-03-20T20:40:18.741Z,4.93
2018-03-20T20:42:46.962Z,4.87
2018-03-20T20:45:13.665Z,4.13
2018-03-20T20:47:40.424Z,2.90
2018-03-20T20:50:07.268Z,3.17
2018-03-20T20:52:34.345Z,3.40
2018-03-20T20:55:02.771Z,3.50
2018-03-20T20:57:29.636Z,3.30
2018-03-20T20:59:59.179Z,3.17
2018-03-20T21:02:26.851Z,3.20
2018-03-20T21:04:54.341Z,3.50
2018-03-20T21:07:21.346Z,2.67
2018-03-20T21:09:48.190Z,4.40
2018-03-20T21:12:14.936Z,4.37
2018-03-20T21:14:41.665Z,4.80
2018-03-20T21:17:08.407Z,5.53
2018-03-20T21:19:35.874Z,7.17
2018-03-20T21:22:03.215Z,15.20
2018-03-20T21:24:30.166Z,17.60
2018-03-20T21:26:56.945Z,6.93
2018-03-20T21:29:23.669Z,4.77
2018-03-20T21:31:50.391Z,5.17
2018-03-20T21:34:17.153Z,4.57
2018-03-20T21:36:45.781Z,4.43
2018-03-20T21:39:12.489Z,4.63
2018-03-20T21:41:39.285Z,4.93
2018-03-20T21:44:06.131Z,4.03
2018-03-20T21:46:32.933Z,4.17
2018-03-20T21:49:00.806Z,4.63
2018-03-20T21:51:27.546Z,5.37
2018-03-20T21:53:55.885Z,4.77
2018-03-20T21:56:23.253Z,6.20
2018-03-20T21:58:50.038Z,5.73
2018-03-20T22:01:16.746Z,6.40
2018-03-20T22:03:43.513Z,6.60
2018-03-20T22:06:10.225Z,6.70
2018-03-20T22:08:36.940Z,6.97
2018-03-20T22:11:03.758Z,5.70
2018-03-20T22:13:30.485Z,5.10
2018-03-20T22:15:57.219Z,4.97
2018-03-20T22:18:24.076Z,4.60
2018-03-20T22:20:50.789Z,4.83
2018-03-20T22:23:17.489Z,4.10
2018-03-20T22:25:44.364Z,5.07
2018-03-20T22:28:11.273Z,4.43
2018-03-20T22:30:38.008Z,5.17
2018-03-20T22:33:04.757Z,4.90
2018-03-20T22:35:31.471Z,4.33
2018-03-20T22:37:58.191Z,4.70
2018-03-20T22:40:24.957Z,4.53
2018-03-20T22:42:51.672Z,5.07
2018-03-20T22:45:18.385Z,4.67
2018-03-20T22:47:45.134Z,4.70
2018-03-20T22:50:11.846Z,4.77
2018-03-20T22:52:38.553Z,4.30
2018-03-20T22:55:05.284Z,4.70
2018-03-20T22:57:32.000Z,4.37
2018-03-20T22:59:58.710Z,4.00
2018-03-20T23:02:25.477Z,4.63
2018-03-20T23:04:52.192Z,5.20
2018-03-20T23:07:18.906Z,5.23
2018-03-20T23:09:45.645Z,5.00
2018-03-20T23:12:12.367Z,4.80
2018-03-20T23:14:39.084Z,4.20
2018-03-20T23:17:05.813Z,3.90
2018-03-20T23:19:32.518Z,4.47
2018-03-20T23:21:59.229Z,4.43
2018-03-20T23:24:26.005Z,4.17
2018-03-20T23:26:52.721Z,3.80
2018-03-20T23:29:19.427Z,3.80
2018-03-20T23:31:46.190Z,3.50
2018-03-20T23:34:12.889Z,3.67
2018-03-20T23:36:39.644Z,4.23
2018-03-20T23:39:06.382Z,4.03
2018-03-20T23:41:33.110Z,3.90
2018-03-20T23:43:59.822Z,4.43
2018-03-20T23:46:26.565Z,4.50
2018-03-20T23:48:53.277Z,4.23
2018-03-20T23:51:19.981Z,4.13
2018-03-20T23:53:46.723Z,4.57
2018-03-20T23:56:13.429Z,4.93
2018-03-20T23:58:40.139Z,4.00
